| time (UTC) | temp F | wind direction | speed knots | gust knots | rain 1hr in | rain 24hr in | rain mn in | humidity % | barometer mb |
| 20260506180006 | 57 | 288 | 2.6 | 9.6 | 0.00 | 0.00 | 0.00 | 59 | 1025.3 |
| 20260506175005 | 57 | 298 | 3.5 | 7.0 | 0.00 | 0.00 | 0.00 | 58 | 1025.3 |
| 20260506174005 | 57 | 274 | 4.3 | 7.8 | 0.00 | 0.00 | 0.00 | 58 | 1025.3 |
| 20260506173005 | 57 | 290 | 2.6 | 7.8 | 0.00 | 0.00 | 0.00 | 58 | 1025.2 |
| 20260506172005 | 58 | 298 | 1.7 | 7.8 | 0.00 | 0.00 | 0.00 | 58 | 1025.2 |
| 20260506171006 | 58 | 281 | 2.6 | 7.0 | 0.00 | 0.00 | 0.00 | 58 | 1025.2 |
| 20260506170005 | 58 | 290 | 3.5 | 7.0 | 0.00 | 0.00 | 0.00 | 57 | 1025.3 |
| 20260506165005 | 59 | 273 | 1.7 | 7.0 | 0.00 | 0.00 | 0.00 | 57 | 1025.1 |
| 20260506164004 | 59 | 270 | 3.5 | 11.3 | 0.00 | 0.00 | 0.00 | 56 | 1025.2 |
| 20260506163005 | 59 | 296 | 4.3 | 7.0 | 0.00 | 0.00 | 0.00 | 56 | 1025.4 |
| 20260506162005 | 59 | 302 | 2.6 | 7.0 | 0.00 | 0.00 | 0.00 | 56 | 1025.4 |
| 20260506161005 | 60 | 304 | 1.7 | 7.0 | 0.00 | 0.00 | 0.00 | 54 | 1025.5 |
| 20260506160006 | 60 | 301 | 1.7 | 7.8 | 0.00 | 0.00 | 0.00 | 53 | 1025.4 |
| 20260506155005 | 60 | 288 | 3.5 | 7.8 | 0.00 | 0.00 | 0.00 | 53 | 1025.4 |
| 20260506154005 | 60 | 290 | 2.6 | 9.6 | 0.00 | 0.00 | 0.00 | 53 | 1025.3 |
| 20260506153005 | 60 | 273 | 4.3 | 7.8 | 0.00 | 0.00 | 0.00 | 54 | 1025.3 |
| 20260506152005 | 60 | 287 | 2.6 | 7.0 | 0.00 | 0.00 | 0.00 | 53 | 1025.3 |
| 20260506151005 | 61 | 293 | 4.3 | 7.0 | 0.00 | 0.00 | 0.00 | 53 | 1025.5 |
| 20260506150005 | 61 | 275 | 3.5 | 7.8 | 0.00 | 0.00 | 0.00 | 53 | 1025.6 |
| 20260506145004 | 61 | 300 | 4.3 | 7.0 | 0.00 | 0.00 | 0.00 | 52 | 1025.6 |
| 20260506144005 | 61 | 283 | 2.6 | 7.8 | 0.00 | 0.00 | 0.00 | 52 | 1025.7 |
| 20260506143005 | 61 | 289 | 1.7 | 7.0 | 0.00 | 0.00 | 0.00 | 52 | 1025.7 |
| 20260506142004 | 61 | 283 | 2.6 | 7.0 | 0.00 | 0.00 | 0.00 | 52 | 1025.7 |
| 20260506141005 | 61 | 278 | 2.6 | 6.1 | 0.00 | 0.00 | 0.00 | 52 | 1025.8 |
| 20260506140005 | 61 | 301 | 1.7 | 6.1 | 0.00 | 0.00 | 0.00 | 53 | 1025.6 |
| 20260506135005 | 61 | 285 | 3.5 | 7.0 | 0.00 | 0.00 | 0.00 | 53 | 1025.5 |
| 20260506134005 | 61 | 285 | 1.7 | 5.2 | 0.00 | 0.00 | 0.00 | 53 | 1025.4 |
| 20260506133004 | 62 | 313 | 2.6 | 5.2 | 0.00 | 0.00 | 0.00 | 53 | 1025.5 |
| 20260506132005 | 62 | 319 | 2.6 | 7.8 | 0.00 | 0.00 | 0.00 | 52 | 1025.2 |
| 20260506131005 | 63 | 311 | 3.5 | 7.0 | 0.00 | 0.00 | 0.00 | 52 | 1025.3 |
| 20260506130005 | 63 | 316 | 2.6 | 7.0 | 0.00 | 0.00 | 0.00 | 52 | 1025.3 |
| 20260506125005 | 63 | 309 | 3.5 | 7.0 | 0.00 | 0.00 | 0.00 | 52 | 1025.2 |
| 20260506124005 | 63 | 311 | 3.5 | 10.4 | 0.00 | 0.00 | 0.00 | 52 | 1025.1 |
| 20260506123005 | 64 | 319 | 3.5 | 7.0 | 0.00 | 0.00 | 0.00 | 52 | 1025.1 |
| 20260506122005 | 64 | 322 | 3.5 | 8.7 | 0.00 | 0.00 | 0.00 | 51 | 1025.0 |
| 20260506121005 | 63 | 318 | 2.6 | 5.2 | 0.00 | 0.00 | 0.00 | 54 | 1025.0 |
| 20260506120005 | 63 | 328 | 1.7 | 4.3 | 0.00 | 0.00 | 0.00 | 54 | 1024.8 |
| 20260506115005 | 63 | 317 | 0.9 | 4.3 | 0.00 | 0.00 | 0.00 | 54 | 1024.7 |
| 20260506114005 | 63 | 320 | 1.7 | 3.5 | 0.00 | 0.00 | 0.00 | 54 | 1024.7 |
| 20260506113004 | 64 | 318 | 1.7 | 5.2 | 0.00 | 0.00 | 0.00 | 53 | 1024.7 |
| 20260506112005 | 64 | 319 | 2.6 | 6.1 | 0.00 | 0.00 | 0.00 | 53 | 1024.7 |
| 20260506111005 | 65 | 314 | 1.7 | 6.1 | 0.00 | 0.00 | 0.00 | 53 | 1024.7 |
| 20260506110004 | 65 | 307 | 3.5 | 6.1 | 0.00 | 0.00 | 0.00 | 52 | 1024.4 |
| 20260506105005 | 65 | 323 | 3.5 | 7.0 | 0.00 | 0.00 | 0.00 | 52 | 1024.3 |
| 20260506104004 | 65 | 333 | 2.6 | 6.1 | 0.00 | 0.00 | 0.00 | 52 | 1024.4 |
| 20260506103005 | 66 | 311 | 2.6 | 6.1 | 0.00 | 0.00 | 0.00 | 52 | 1024.2 |
| 20260506102005 | 66 | 301 | 1.7 | 6.1 | 0.00 | 0.00 | 0.00 | 52 | 1024.1 |
| 20260506101004 | 67 | 313 | 3.5 | 7.0 | 0.00 | 0.00 | 0.00 | 50 | 1023.9 |
| 20260506100005 | 67 | 316 | 2.6 | 4.3 | 0.00 | 0.00 | 0.00 | 49 | 1023.8 |
| 20260506095004 | 68 | 296 | 1.7 | 5.2 | 0.00 | 0.00 | 0.00 | 46 | 1023.6 |
| 20260506094005 | 69 | 290 | 1.7 | 5.2 | 0.00 | 0.00 | 0.00 | 44 | 1023.6 |
| 20260506093004 | 69 | 296 | 3.5 | 7.8 | 0.00 | 0.00 | 0.00 | 43 | 1023.4 |
| 20260506092005 | 70 | 292 | 3.5 | 6.1 | 0.00 | 0.00 | 0.00 | 43 | 1023.4 |
| 20260506091004 | 88 | 296 | 2.6 | 7.0 | 0.00 | 0.00 | 0.00 | 42 | 1023.4 |
| 20260506090005 | 83 | 294 | 3.5 | 9.6 | 0.00 | 0.00 | 0.00 | 39 | 1023.4 |
| 20260506085005 | 72 | 294 | 3.5 | 12.2 | 0.00 | 0.00 | 0.00 | 39 | 1023.4 |
| 20260506084004 | 72 | 279 | 4.3 | 10.4 | 0.00 | 0.00 | 0.00 | 39 | 1023.5 |
| 20260506083005 | 72 | 294 | 5.2 | 10.4 | 0.00 | 0.00 | 0.00 | 39 | 1023.3 |
| 20260506082005 | 76 | 296 | 3.5 | 9.6 | 0.00 | 0.00 | 0.00 | 39 | 1023.4 |
| 20260506081005 | 73 | 313 | 5.2 | 11.3 | 0.00 | 0.00 | 0.00 | 39 | 1023.4 |
| 20260506073004 | 73 | 295 | 3.5 | 9.6 | 0.00 | 0.00 | 0.00 | 39 | 1023.2 |
| 20260506072004 | 73 | 279 | 4.3 | 11.3 | 0.00 | 0.00 | 0.00 | 38 | 1023.4 |
| 20260506071005 | 73 | 275 | 7.0 | 12.2 | 0.00 | 0.00 | 0.00 | 38 | 1023.3 |
| 20260506062004 | 73 | 249 | 3.5 | 13.0 | 0.00 | 0.00 | 0.00 | 38 | 1023.4 |
| 20260506061004 | 73 | 259 | 7.0 | 10.4 | 0.00 | 0.00 | 0.00 | 38 | 1023.4 |
| 20260506051004 | 73 | 262 | 3.5 | 13.0 | 0.00 | 0.00 | 0.00 | 36 | 1023.7 |
| 20260506045004 | 72 | 260 | 7.0 | 13.0 | 0.00 | 0.00 | 0.00 | 36 | 1023.8 |
| 20260506044005 | 71 | 245 | 2.6 | 12.2 | 0.00 | 0.00 | 0.00 | 36 | 1024.0 |
| 20260506043004 | 71 | 255 | 7.0 | 13.0 | 0.00 | 0.00 | 0.00 | 34 | 1024.1 |
| 20260506042005 | 71 | 276 | 5.2 | 11.3 | 0.00 | 0.00 | 0.00 | 35 | 1024.3 |
| 20260506041004 | 71 | 236 | 4.3 | 9.6 | 0.00 | 0.00 | 0.00 | 35 | 1024.5 |
| 20260506040004 | 71 | 239 | 3.5 | 13.0 | 0.00 | 0.00 | 0.00 | 31 | 1024.5 |
| 20260506035004 | 71 | 235 | 5.2 | 13.0 | 0.00 | 0.00 | 0.00 | 31 | 1024.7 |
| 20260506034004 | 70 | 245 | 2.6 | 9.6 | 0.00 | 0.00 | 0.00 | 31 | 1024.7 |
| 20260506033005 | 70 | 264 | 4.3 | 10.4 | 0.00 | 0.00 | 0.00 | 29 | 1025.0 |
| 20260506032004 | 70 | 267 | 3.5 | 10.4 | 0.00 | 0.00 | 0.00 | 29 | 1025.0 |
| 20260506031004 | 69 | 266 | 6.1 | 13.0 | 0.00 | 0.00 | 0.00 | 28 | 1025.1 |
| 20260506030005 | 69 | 245 | 6.1 | 14.8 | 0.00 | 0.00 | 0.00 | 25 | 1025.2 |
| 20260506025004 | 69 | 243 | 3.5 | 13.0 | 0.00 | 0.00 | 0.00 | 26 | 1025.0 |
| 20260506024005 | 68 | 270 | 7.8 | 13.0 | 0.00 | 0.00 | 0.00 | 25 | 1025.1 |
| 20260506023004 | 67 | 231 | 5.2 | 10.4 | 0.00 | 0.00 | 0.00 | 23 | 1025.3 |
| 20260506022004 | 67 | 270 | 6.1 | 9.6 | 0.00 | 0.00 | 0.00 | 21 | 1025.3 |
| 20260506021004 | 66 | 275 | 4.3 | 9.6 | 0.00 | 0.00 | 0.00 | 22 | 1025.4 |
| 20260506020004 | 65 | 284 | 7.0 | 11.3 | 0.00 | 0.00 | 0.00 | 22 | 1025.4 |
| 20260506015004 | 65 | 270 | 4.3 | 9.6 | 0.00 | 0.00 | 0.00 | 21 | 1025.5 |
| 20260506014004 | 64 | 270 | 6.1 | 13.0 | 0.00 | 0.00 | 0.00 | 22 | 1025.5 |
| 20260506013004 | 63 | 282 | 7.0 | 12.2 | 0.00 | 0.00 | 0.00 | 23 | 1025.5 |
| 20260506012004 | 62 | 289 | 7.0 | 12.2 | 0.00 | 0.00 | 0.00 | 23 | 1025.5 |
| 20260506011004 | 78 | 271 | 3.5 | 13.9 | 0.00 | 0.00 | 0.00 | 24 | 1025.5 |
| 20260506010004 | 61 | 285 | 7.0 | 14.8 | 0.00 | 0.00 | 0.00 | 23 | 1025.4 |
| 20260506005004 | 60 | 273 | 7.8 | 13.0 | 0.00 | 0.00 | 0.00 | 24 | 1025.4 |
| 20260506004004 | 60 | 268 | 7.8 | 13.0 | 0.00 | 0.00 | 0.00 | 23 | 1025.2 |
| 20260506003004 | 59 | 269 | 6.1 | 9.6 | 0.00 | 0.00 | 0.00 | 25 | 1025.2 |
| 20260506002004 | 59 | 288 | 2.6 | 9.6 | 0.00 | 0.00 | 0.00 | 25 | 1025.1 |
| 20260506001004 | 58 | 293 | 7.0 | 9.6 | 0.00 | 0.00 | 0.00 | 26 | 1025.0 |
| 20260506000004 | 57 | 299 | 5.2 | 9.6 | 0.00 | 0.00 | 0.00 | 28 | 1024.9 |
| 20260505235004 | 56 | 300 | 7.0 | 11.3 | 0.00 | 0.00 | 0.00 | 29 | 1024.8 |
| 20260505234004 | 56 | 304 | 5.2 | 9.6 | 0.00 | 0.00 | 0.00 | 31 | 1024.6 |
| 20260505233004 | 55 | 290 | 5.2 | 12.2 | 0.00 | 0.00 | 0.00 | 34 | 1024.5 |
| 20260505232004 | 54 | 293 | 5.2 | 8.7 | 0.00 | 0.00 | 0.00 | 39 | 1024.4 |
| 20260505231004 | 54 | 291 | 3.5 | 9.6 | 0.00 | 0.00 | 0.00 | 41 | 1024.1 |
| 20260505230004 | 53 | 284 | 3.5 | 7.0 | 0.00 | 0.00 | 0.00 | 44 | 1024.0 |
| 20260505225004 | 53 | 269 | 2.6 | 7.0 | 0.00 | 0.00 | 0.00 | 45 | 1023.9 |
| 20260505224003 | 54 | 291 | 2.6 | 7.0 | 0.00 | 0.00 | 0.00 | 46 | 1023.9 |
| 20260505223004 | 54 | 272 | 3.5 | 7.0 | 0.00 | 0.00 | 0.00 | 46 | 1023.8 |
| 20260505222003 | 54 | 277 | 3.5 | 7.8 | 0.00 | 0.00 | 0.00 | 46 | 1023.9 |
| 20260505221004 | 55 | 271 | 5.2 | 7.8 | 0.00 | 0.00 | 0.00 | 46 | 1023.6 |
| 20260505220003 | 55 | 286 | 3.5 | 12.2 | 0.00 | 0.00 | 0.00 | 47 | 1023.6 |
| 20260505215004 | 55 | 286 | 2.6 | 9.6 | 0.00 | 0.00 | 0.00 | 47 | 1023.5 |
| 20260505214004 | 55 | 275 | 4.3 | 9.6 | 0.00 | 0.00 | 0.00 | 48 | 1023.4 |
| 20260505213003 | 55 | 280 | 6.1 | 10.4 | 0.00 | 0.00 | 0.00 | 49 | 1023.4 |
| 20260505212004 | 55 | 281 | 6.1 | 10.4 | 0.00 | 0.00 | 0.00 | 50 | 1023.4 |
| 20260505211003 | 56 | 303 | 6.1 | 13.9 | 0.00 | 0.00 | 0.00 | 50 | 1023.3 |
| 20260505210003 | 56 | 306 | 4.3 | 14.8 | 0.00 | 0.00 | 0.00 | 50 | 1023.1 |
| 20260505205003 | 56 | 303 | 6.1 | 13.0 | 0.00 | 0.00 | 0.00 | 50 | 1023.1 |
| 20260505204003 | 56 | 279 | 4.3 | 12.2 | 0.00 | 0.00 | 0.00 | 50 | 1023.1 |
| 20260505203004 | 56 | 300 | 7.0 | 11.3 | 0.00 | 0.00 | 0.00 | 51 | 1023.0 |
| 20260505202004 | 56 | 288 | 6.1 | 13.0 | 0.00 | 0.00 | 0.00 | 51 | 1023.0 |
| 20260505201003 | 56 | 298 | 4.3 | 10.4 | 0.00 | 0.00 | 0.00 | 52 | 1022.9 |
| 20260505200003 | 56 | 294 | 6.1 | 9.6 | 0.00 | 0.00 | 0.00 | 52 | 1022.9 |
| 20260505195004 | 56 | 283 | 3.5 | 10.4 | 0.00 | 0.00 | 0.00 | 52 | 1022.9 |
| 20260505194005 | 57 | 283 | 3.5 | 11.3 | 0.00 | 0.00 | 0.00 | 52 | 1022.9 |
| 20260505193005 | 57 | 306 | 3.5 | 9.6 | 0.00 | 0.00 | 0.00 | 52 | 1022.8 |
| 20260505192005 | 57 | 290 | 4.3 | 8.7 | 0.00 | 0.00 | 0.00 | 52 | 1022.9 |
| 20260505191006 | 57 | 290 | 4.3 | 9.6 | 0.00 | 0.00 | 0.00 | 52 | 1022.7 |
| 20260505190005 | 58 | 289 | 2.6 | 9.6 | 0.00 | 0.00 | 0.00 | 51 | 1022.6 |
| 20260505185005 | 58 | 299 | 5.2 | 9.6 | 0.00 | 0.00 | 0.00 | 51 | 1022.6 |
| 20260505184006 | 58 | 289 | 5.2 | 7.8 | 0.00 | 0.00 | 0.00 | 51 | 1022.7 |
| 20260505183005 | 58 | 294 | 3.5 | 8.7 | 0.00 | 0.00 | 0.00 | 51 | 1022.8 |
| 20260505182005 | 58 | 301 | 5.2 | 10.4 | 0.00 | 0.00 | 0.00 | 50 | 1022.9 |
| 20260505181006 | 58 | 303 | 4.3 | 10.4 | 0.00 | 0.00 | 0.00 | 50 | 1022.8 |